sensor_id;sensor_type;location;lat;lon;timestamp;P1;durP1;ratioP1;P2;durP2;ratioP2
9950;SDS011;24074;49.254;6.702;2023-08-20T00:01:54;12.43;;;5.53;;
9950;SDS011;24074;49.254;6.702;2023-08-20T00:04:23;7.33;;;5.07;;
9950;SDS011;24074;49.254;6.702;2023-08-20T00:06:52;10.07;;;5.70;;
9950;SDS011;24074;49.254;6.702;2023-08-20T00:09:17;10.87;;;4.90;;
9950;SDS011;24074;49.254;6.702;2023-08-20T00:11:43;7.57;;;5.03;;
9950;SDS011;24074;49.254;6.702;2023-08-20T00:14:15;10.07;;;5.47;;
9950;SDS011;24074;49.254;6.702;2023-08-20T00:16:42;6.57;;;5.20;;
9950;SDS011;24074;49.254;6.702;2023-08-20T00:19:08;12.90;;;5.40;;
9950;SDS011;24074;49.254;6.702;2023-08-20T00:21:34;7.73;;;5.70;;
9950;SDS011;24074;49.254;6.702;2023-08-20T00:24:00;10.77;;;5.60;;
9950;SDS011;24074;49.254;6.702;2023-08-20T00:26:26;11.93;;;5.90;;
9950;SDS011;24074;49.254;6.702;2023-08-20T00:28:52;7.13;;;5.37;;
9950;SDS011;24074;49.254;6.702;2023-08-20T00:31:17;9.63;;;5.00;;
9950;SDS011;24074;49.254;6.702;2023-08-20T00:33:43;6.77;;;5.20;;
9950;SDS011;24074;49.254;6.702;2023-08-20T00:36:09;8.93;;;5.00;;
9950;SDS011;24074;49.254;6.702;2023-08-20T00:38:34;8.43;;;4.83;;
9950;SDS011;24074;49.254;6.702;2023-08-20T00:41:00;7.23;;;5.00;;
9950;SDS011;24074;49.254;6.702;2023-08-20T00:43:28;6.63;;;4.37;;
9950;SDS011;24074;49.254;6.702;2023-08-20T00:45:54;7.97;;;4.83;;
9950;SDS011;24074;49.254;6.702;2023-08-20T00:48:19;6.23;;;3.97;;
9950;SDS011;24074;49.254;6.702;2023-08-20T00:50:45;5.60;;;4.20;;
9950;SDS011;24074;49.254;6.702;2023-08-20T00:53:10;8.97;;;4.33;;
9950;SDS011;24074;49.254;6.702;2023-08-20T00:55:38;7.13;;;4.67;;
9950;SDS011;24074;49.254;6.702;2023-08-20T00:58:03;6.60;;;4.40;;
9950;SDS011;24074;49.254;6.702;2023-08-20T01:00:30;6.43;;;4.27;;
9950;SDS011;24074;49.254;6.702;2023-08-20T01:02:55;5.83;;;4.40;;
9950;SDS011;24074;49.254;6.702;2023-08-20T01:05:21;6.40;;;4.33;;
9950;SDS011;24074;49.254;6.702;2023-08-20T01:07:57;5.87;;;4.13;;
9950;SDS011;24074;49.254;6.702;2023-08-20T01:10:57;6.20;;;4.73;;
9950;SDS011;24074;49.254;6.702;2023-08-20T01:13:40;6.13;;;4.23;;
9950;SDS011;24074;49.254;6.702;2023-08-20T01:16:06;6.07;;;4.50;;
9950;SDS011;24074;49.254;6.702;2023-08-20T01:18:31;5.90;;;4.27;;
9950;SDS011;24074;49.254;6.702;2023-08-20T01:20:58;9.23;;;4.00;;
9950;SDS011;24074;49.254;6.702;2023-08-20T01:28:50;7.43;;;4.30;;
9950;SDS011;24074;49.254;6.702;2023-08-20T01:31:16;5.70;;;4.07;;
9950;SDS011;24074;49.254;6.702;2023-08-20T01:33:43;8.27;;;4.63;;
9950;SDS011;24074;49.254;6.702;2023-08-20T01:36:09;6.77;;;4.30;;
9950;SDS011;24074;49.254;6.702;2023-08-20T01:38:35;8.17;;;4.80;;
9950;SDS011;24074;49.254;6.702;2023-08-20T01:41:01;8.03;;;5.00;;
9950;SDS011;24074;49.254;6.702;2023-08-20T01:43:27;6.20;;;4.70;;
9950;SDS011;24074;49.254;6.702;2023-08-20T01:45:53;6.40;;;5.07;;
9950;SDS011;24074;49.254;6.702;2023-08-20T01:48:18;5.43;;;4.50;;
9950;SDS011;24074;49.254;6.702;2023-08-20T01:50:44;6.27;;;4.70;;
9950;SDS011;24074;49.254;6.702;2023-08-20T01:53:11;9.60;;;4.67;;
9950;SDS011;24074;49.254;6.702;2023-08-20T01:55:36;6.77;;;4.43;;
9950;SDS011;24074;49.254;6.702;2023-08-20T01:58:02;7.20;;;4.57;;
9950;SDS011;24074;49.254;6.702;2023-08-20T02:00:28;6.63;;;4.63;;
9950;SDS011;24074;49.254;6.702;2023-08-20T02:02:55;7.10;;;4.20;;
9950;SDS011;24074;49.254;6.702;2023-08-20T02:05:21;8.30;;;3.83;;
9950;SDS011;24074;49.254;6.702;2023-08-20T02:07:47;6.93;;;4.17;;
9950;SDS011;24074;49.254;6.702;2023-08-20T02:10:12;8.23;;;4.43;;
9950;SDS011;24074;49.254;6.702;2023-08-20T02:12:38;9.07;;;4.37;;
9950;SDS011;24074;49.254;6.702;2023-08-20T02:15:04;8.73;;;4.60;;
9950;SDS011;24074;49.254;6.702;2023-08-20T02:17:30;9.30;;;4.20;;
9950;SDS011;24074;49.254;6.702;2023-08-20T02:19:56;5.77;;;4.50;;
9950;SDS011;24074;49.254;6.702;2023-08-20T02:22:21;5.97;;;4.33;;
9950;SDS011;24074;49.254;6.702;2023-08-20T02:24:47;7.37;;;4.83;;
9950;SDS011;24074;49.254;6.702;2023-08-20T02:27:12;7.73;;;4.17;;
9950;SDS011;24074;49.254;6.702;2023-08-20T02:29:38;6.80;;;4.20;;
9950;SDS011;24074;49.254;6.702;2023-08-20T02:32:03;6.17;;;4.50;;
9950;SDS011;24074;49.254;6.702;2023-08-20T02:34:29;7.67;;;4.33;;
9950;SDS011;24074;49.254;6.702;2023-08-20T02:36:55;8.53;;;4.57;;
9950;SDS011;24074;49.254;6.702;2023-08-20T02:39:20;8.83;;;4.63;;
9950;SDS011;24074;49.254;6.702;2023-08-20T02:41:46;9.47;;;4.27;;
9950;SDS011;24074;49.254;6.702;2023-08-20T02:44:11;8.77;;;4.50;;
9950;SDS011;24074;49.254;6.702;2023-08-20T02:46:38;9.63;;;5.40;;
9950;SDS011;24074;49.254;6.702;2023-08-20T02:49:05;7.63;;;4.83;;
9950;SDS011;24074;49.254;6.702;2023-08-20T02:51:32;7.03;;;4.73;;
9950;SDS011;24074;49.254;6.702;2023-08-20T02:53:58;11.07;;;4.93;;
9950;SDS011;24074;49.254;6.702;2023-08-20T02:56:23;6.07;;;4.80;;
9950;SDS011;24074;49.254;6.702;2023-08-20T02:58:49;6.23;;;4.37;;
9950;SDS011;24074;49.254;6.702;2023-08-20T03:01:24;7.60;;;4.87;;
9950;SDS011;24074;49.254;6.702;2023-08-20T03:03:50;9.93;;;5.00;;
9950;SDS011;24074;49.254;6.702;2023-08-20T03:06:15;8.10;;;5.37;;
9950;SDS011;24074;49.254;6.702;2023-08-20T03:08:41;9.33;;;5.30;;
9950;SDS011;24074;49.254;6.702;2023-08-20T03:11:06;7.40;;;4.70;;
9950;SDS011;24074;49.254;6.702;2023-08-20T03:13:32;8.03;;;4.47;;
9950;SDS011;24074;49.254;6.702;2023-08-20T03:15:58;9.93;;;4.30;;
9950;SDS011;24074;49.254;6.702;2023-08-20T03:18:23;4.93;;;3.93;;
9950;SDS011;24074;49.254;6.702;2023-08-20T03:20:49;8.97;;;4.83;;
9950;SDS011;24074;49.254;6.702;2023-08-20T03:23:15;7.30;;;4.90;;
9950;SDS011;24074;49.254;6.702;2023-08-20T03:25:40;8.13;;;4.40;;
9950;SDS011;24074;49.254;6.702;2023-08-20T03:28:06;9.77;;;4.10;;
9950;SDS011;24074;49.254;6.702;2023-08-20T03:30:31;6.50;;;4.50;;
9950;SDS011;24074;49.254;6.702;2023-08-20T03:32:58;8.90;;;4.60;;
9950;SDS011;24074;49.254;6.702;2023-08-20T03:35:24;5.47;;;4.10;;
9950;SDS011;24074;49.254;6.702;2023-08-20T03:37:49;9.00;;;4.57;;
9950;SDS011;24074;49.254;6.702;2023-08-20T03:40:15;8.70;;;4.67;;
9950;SDS011;24074;49.254;6.702;2023-08-20T03:42:41;9.60;;;4.40;;
9950;SDS011;24074;49.254;6.702;2023-08-20T03:45:06;6.97;;;3.80;;
9950;SDS011;24074;49.254;6.702;2023-08-20T03:47:33;7.30;;;4.67;;
9950;SDS011;24074;49.254;6.702;2023-08-20T03:49:58;5.70;;;4.50;;
9950;SDS011;24074;49.254;6.702;2023-08-20T03:52:24;6.10;;;4.50;;
9950;SDS011;24074;49.254;6.702;2023-08-20T03:54:49;7.83;;;4.57;;
9950;SDS011;24074;49.254;6.702;2023-08-20T03:57:15;6.33;;;4.23;;
9950;SDS011;24074;49.254;6.702;2023-08-20T03:59:41;7.27;;;4.87;;
9950;SDS011;24074;49.254;6.702;2023-08-20T04:02:06;8.77;;;4.93;;
9950;SDS011;24074;49.254;6.702;2023-08-20T04:04:32;6.93;;;4.40;;
9950;SDS011;24074;49.254;6.702;2023-08-20T04:06:58;7.20;;;4.40;;
9950;SDS011;24074;49.254;6.702;2023-08-20T04:09:23;7.07;;;4.13;;
9950;SDS011;24074;49.254;6.702;2023-08-20T04:11:49;9.03;;;4.03;;
9950;SDS011;24074;49.254;6.702;2023-08-20T04:14:14;8.77;;;5.17;;
9950;SDS011;24074;49.254;6.702;2023-08-20T04:16:40;6.80;;;4.67;;
9950;SDS011;24074;49.254;6.702;2023-08-20T04:19:05;9.27;;;5.27;;
9950;SDS011;24074;49.254;6.702;2023-08-20T04:21:31;8.00;;;4.43;;
9950;SDS011;24074;49.254;6.702;2023-08-20T04:23:56;8.83;;;4.03;;
9950;SDS011;24074;49.254;6.702;2023-08-20T04:26:22;7.27;;;4.80;;
9950;SDS011;24074;49.254;6.702;2023-08-20T04:28:48;10.73;;;4.60;;
9950;SDS011;24074;49.254;6.702;2023-08-20T04:31:13;9.27;;;4.37;;
9950;SDS011;24074;49.254;6.702;2023-08-20T04:33:39;5.53;;;4.93;;
9950;SDS011;24074;49.254;6.702;2023-08-20T04:36:04;6.07;;;4.50;;
9950;SDS011;24074;49.254;6.702;2023-08-20T04:38:30;5.33;;;4.20;;
9950;SDS011;24074;49.254;6.702;2023-08-20T04:40:55;6.27;;;4.67;;
9950;SDS011;24074;49.254;6.702;2023-08-20T04:43:21;8.43;;;4.40;;
9950;SDS011;24074;49.254;6.702;2023-08-20T04:45:46;6.90;;;4.93;;
9950;SDS011;24074;49.254;6.702;2023-08-20T04:48:12;7.47;;;4.60;;
9950;SDS011;24074;49.254;6.702;2023-08-20T04:50:37;6.53;;;4.37;;
9950;SDS011;24074;49.254;6.702;2023-08-20T04:53:03;7.37;;;4.87;;
9950;SDS011;24074;49.254;6.702;2023-08-20T04:55:29;6.13;;;4.47;;
9950;SDS011;24074;49.254;6.702;2023-08-20T04:57:54;7.37;;;4.17;;
9950;SDS011;24074;49.254;6.702;2023-08-20T05:00:21;6.80;;;4.27;;
9950;SDS011;24074;49.254;6.702;2023-08-20T05:02:47;8.47;;;4.77;;
9950;SDS011;24074;49.254;6.702;2023-08-20T05:05:13;5.17;;;4.17;;
9950;SDS011;24074;49.254;6.702;2023-08-20T05:07:38;8.17;;;4.53;;
9950;SDS011;24074;49.254;6.702;2023-08-20T05:10:04;6.07;;;4.67;;
9950;SDS011;24074;49.254;6.702;2023-08-20T05:12:30;10.37;;;5.30;;
9950;SDS011;24074;49.254;6.702;2023-08-20T05:14:55;7.53;;;4.40;;
9950;SDS011;24074;49.254;6.702;2023-08-20T05:17:21;5.73;;;4.47;;
9950;SDS011;24074;49.254;6.702;2023-08-20T05:19:47;9.63;;;4.37;;
9950;SDS011;24074;49.254;6.702;2023-08-20T05:22:12;8.63;;;4.43;;
9950;SDS011;24074;49.254;6.702;2023-08-20T05:24:38;5.70;;;3.77;;
9950;SDS011;24074;49.254;6.702;2023-08-20T05:27:07;7.67;;;4.27;;
9950;SDS011;24074;49.254;6.702;2023-08-20T05:29:41;7.67;;;4.33;;
9950;SDS011;24074;49.254;6.702;2023-08-20T05:32:07;5.53;;;4.10;;
9950;SDS011;24074;49.254;6.702;2023-08-20T05:34:32;4.70;;;3.90;;
9950;SDS011;24074;49.254;6.702;2023-08-20T05:36:58;6.17;;;4.23;;
9950;SDS011;24074;49.254;6.702;2023-08-20T05:39:24;7.07;;;3.60;;
9950;SDS011;24074;49.254;6.702;2023-08-20T05:41:50;5.43;;;4.17;;
9950;SDS011;24074;49.254;6.702;2023-08-20T05:44:19;8.00;;;4.40;;
9950;SDS011;24074;49.254;6.702;2023-08-20T05:46:45;5.73;;;4.10;;
9950;SDS011;24074;49.254;6.702;2023-08-20T05:49:14;5.30;;;3.97;;
9950;SDS011;24074;49.254;6.702;2023-08-20T05:51:43;5.60;;;4.00;;
9950;SDS011;24074;49.254;6.702;2023-08-20T05:54:09;4.33;;;4.03;;
9950;SDS011;24074;49.254;6.702;2023-08-20T05:56:35;5.87;;;4.00;;
9950;SDS011;24074;49.254;6.702;2023-08-20T05:59:01;6.43;;;4.40;;
9950;SDS011;24074;49.254;6.702;2023-08-20T06:01:26;8.80;;;4.30;;
9950;SDS011;24074;49.254;6.702;2023-08-20T06:03:52;4.60;;;4.20;;
9950;SDS011;24074;49.254;6.702;2023-08-20T06:06:18;6.43;;;4.60;;
9950;SDS011;24074;49.254;6.702;2023-08-20T06:08:43;5.60;;;4.60;;
9950;SDS011;24074;49.254;6.702;2023-08-20T06:11:09;7.67;;;4.70;;
9950;SDS011;24074;49.254;6.702;2023-08-20T06:13:34;8.47;;;5.10;;
9950;SDS011;24074;49.254;6.702;2023-08-20T06:16:00;6.17;;;4.53;;
9950;SDS011;24074;49.254;6.702;2023-08-20T06:18:25;6.83;;;5.60;;
9950;SDS011;24074;49.254;6.702;2023-08-20T06:20:51;9.27;;;4.77;;
9950;SDS011;24074;49.254;6.702;2023-08-20T06:23:16;7.50;;;5.07;;
9950;SDS011;24074;49.254;6.702;2023-08-20T06:25:43;6.70;;;3.97;;
9950;SDS011;24074;49.254;6.702;2023-08-20T06:28:08;6.18;;;4.32;;
9950;SDS011;24074;49.254;6.702;2023-08-20T06:30:37;6.00;;;4.13;;
9950;SDS011;24074;49.254;6.702;2023-08-20T06:33:02;4.45;;;3.40;;
9950;SDS011;24074;49.254;6.702;2023-08-20T06:35:28;6.22;;;3.97;;
9950;SDS011;24074;49.254;6.702;2023-08-20T06:37:54;6.90;;;3.78;;
9950;SDS011;24074;49.254;6.702;2023-08-20T06:40:19;4.65;;;3.42;;
9950;SDS011;24074;49.254;6.702;2023-08-20T06:42:45;4.68;;;3.50;;
9950;SDS011;24074;49.254;6.702;2023-08-20T06:45:10;4.82;;;3.60;;
9950;SDS011;24074;49.254;6.702;2023-08-20T06:47:36;4.15;;;3.65;;
9950;SDS011;24074;49.254;6.702;2023-08-20T06:50:02;4.82;;;3.95;;
9950;SDS011;24074;49.254;6.702;2023-08-20T06:52:27;6.70;;;3.50;;
9950;SDS011;24074;49.254;6.702;2023-08-20T06:54:53;4.13;;;3.60;;
9950;SDS011;24074;49.254;6.702;2023-08-20T06:57:22;5.07;;;3.53;;
9950;SDS011;24074;49.254;6.702;2023-08-20T06:59:47;5.35;;;3.35;;
9950;SDS011;24074;49.254;6.702;2023-08-20T07:02:13;3.63;;;3.20;;
9950;SDS011;24074;49.254;6.702;2023-08-20T07:04:38;5.50;;;3.67;;
9950;SDS011;24074;49.254;6.702;2023-08-20T07:07:04;4.93;;;3.22;;
9950;SDS011;24074;49.254;6.702;2023-08-20T07:09:30;7.10;;;3.55;;
9950;SDS011;24074;49.254;6.702;2023-08-20T07:11:55;3.90;;;3.50;;
9950;SDS011;24074;49.254;6.702;2023-08-20T07:14:21;4.50;;;3.38;;
9950;SDS011;24074;49.254;6.702;2023-08-20T07:16:47;5.03;;;3.22;;
9950;SDS011;24074;49.254;6.702;2023-08-20T07:19:12;5.13;;;3.58;;
9950;SDS011;24074;49.254;6.702;2023-08-20T07:21:38;4.53;;;3.55;;
9950;SDS011;24074;49.254;6.702;2023-08-20T07:24:03;5.93;;;3.50;;
9950;SDS011;24074;49.254;6.702;2023-08-20T07:26:29;3.90;;;3.53;;
9950;SDS011;24074;49.254;6.702;2023-08-20T07:28:55;4.50;;;3.55;;
9950;SDS011;24074;49.254;6.702;2023-08-20T07:31:28;3.40;;;3.10;;
9950;SDS011;24074;49.254;6.702;2023-08-20T07:33:56;3.30;;;2.95;;
9950;SDS011;24074;49.254;6.702;2023-08-20T07:36:23;4.70;;;3.22;;
9950;SDS011;24074;49.254;6.702;2023-08-20T07:38:53;3.80;;;3.22;;
9950;SDS011;24074;49.254;6.702;2023-08-20T07:41:19;3.42;;;3.00;;
9950;SDS011;24074;49.254;6.702;2023-08-20T07:43:46;4.53;;;3.05;;
9950;SDS011;24074;49.254;6.702;2023-08-20T07:46:12;3.92;;;3.13;;
9950;SDS011;24074;49.254;6.702;2023-08-20T07:48:38;3.95;;;3.17;;
9950;SDS011;24074;49.254;6.702;2023-08-20T07:51:04;3.55;;;3.03;;
9950;SDS011;24074;49.254;6.702;2023-08-20T07:53:30;6.05;;;2.90;;
9950;SDS011;24074;49.254;6.702;2023-08-20T07:55:56;4.22;;;2.80;;
9950;SDS011;24074;49.254;6.702;2023-08-20T07:58:22;3.13;;;2.65;;
9950;SDS011;24074;49.254;6.702;2023-08-20T08:00:47;3.65;;;2.60;;
9950;SDS011;24074;49.254;6.702;2023-08-20T08:03:13;3.00;;;2.53;;
9950;SDS011;24074;49.254;6.702;2023-08-20T08:05:51;2.67;;;2.47;;
9950;SDS011;24074;49.254;6.702;2023-08-20T08:08:16;3.72;;;3.33;;
9950;SDS011;24074;49.254;6.702;2023-08-20T08:10:43;4.55;;;3.65;;
9950;SDS011;24074;49.254;6.702;2023-08-20T08:13:10;5.22;;;3.25;;
9950;SDS011;24074;49.254;6.702;2023-08-20T08:15:37;3.90;;;3.15;;
9950;SDS011;24074;49.254;6.702;2023-08-20T08:18:02;6.57;;;3.67;;
9950;SDS011;24074;49.254;6.702;2023-08-20T08:20:28;5.78;;;3.28;;
9950;SDS011;24074;49.254;6.702;2023-08-20T08:22:54;3.85;;;3.35;;
9950;SDS011;24074;49.254;6.702;2023-08-20T08:25:19;6.05;;;3.58;;
9950;SDS011;24074;49.254;6.702;2023-08-20T08:27:45;5.15;;;3.20;;
9950;SDS011;24074;49.254;6.702;2023-08-20T08:30:11;4.57;;;3.13;;
9950;SDS011;24074;49.254;6.702;2023-08-20T08:32:36;4.57;;;2.92;;
9950;SDS011;24074;49.254;6.702;2023-08-20T08:35:02;4.68;;;3.22;;
9950;SDS011;24074;49.254;6.702;2023-08-20T08:37:28;6.65;;;3.13;;
9950;SDS011;24074;49.254;6.702;2023-08-20T08:39:53;4.07;;;2.80;;
9950;SDS011;24074;49.254;6.702;2023-08-20T08:42:19;4.75;;;3.17;;
9950;SDS011;24074;49.254;6.702;2023-08-20T08:44:49;6.15;;;3.20;;
9950;SDS011;24074;49.254;6.702;2023-08-20T08:47:15;4.43;;;3.17;;
9950;SDS011;24074;49.254;6.702;2023-08-20T08:49:42;4.75;;;3.30;;
9950;SDS011;24074;49.254;6.702;2023-08-20T08:52:11;4.95;;;3.47;;
9950;SDS011;24074;49.254;6.702;2023-08-20T08:54:37;6.00;;;4.10;;
9950;SDS011;24074;49.254;6.702;2023-08-20T08:57:02;9.05;;;4.30;;
9950;SDS011;24074;49.254;6.702;2023-08-20T08:59:29;6.53;;;4.03;;
9950;SDS011;24074;49.254;6.702;2023-08-20T09:01:54;5.95;;;3.65;;
9950;SDS011;24074;49.254;6.702;2023-08-20T09:04:21;5.45;;;3.75;;
9950;SDS011;24074;49.254;6.702;2023-08-20T09:06:51;6.30;;;3.38;;
9950;SDS011;24074;49.254;6.702;2023-08-20T09:09:18;5.03;;;3.65;;
9950;SDS011;24074;49.254;6.702;2023-08-20T09:11:45;5.78;;;3.20;;
9950;SDS011;24074;49.254;6.702;2023-08-20T09:14:29;5.03;;;3.45;;
9950;SDS011;24074;49.254;6.702;2023-08-20T09:16:56;4.18;;;3.45;;
9950;SDS011;24074;49.254;6.702;2023-08-20T09:19:23;5.72;;;3.53;;
9950;SDS011;24074;49.254;6.702;2023-08-20T09:21:49;5.47;;;3.67;;
9950;SDS011;24074;49.254;6.702;2023-08-20T09:24:18;4.88;;;3.45;;
9950;SDS011;24074;49.254;6.702;2023-08-20T09:26:55;4.65;;;3.78;;
9950;SDS011;24074;49.254;6.702;2023-08-20T09:29:23;5.70;;;3.38;;
9950;SDS011;24074;49.254;6.702;2023-08-20T09:31:48;4.88;;;3.60;;
9950;SDS011;24074;49.254;6.702;2023-08-20T09:34:14;5.50;;;3.50;;
9950;SDS011;24074;49.254;6.702;2023-08-20T09:36:39;4.63;;;3.22;;
9950;SDS011;24074;49.254;6.702;2023-08-20T09:39:05;4.10;;;3.40;;
9950;SDS011;24074;49.254;6.702;2023-08-20T09:41:30;5.25;;;3.30;;
9950;SDS011;24074;49.254;6.702;2023-08-20T09:43:58;5.97;;;3.10;;
9950;SDS011;24074;49.254;6.702;2023-08-20T09:46:25;4.20;;;2.97;;
9950;SDS011;24074;49.254;6.702;2023-08-20T09:48:52;6.45;;;3.25;;
9950;SDS011;24074;49.254;6.702;2023-08-20T09:51:27;7.30;;;3.08;;
9950;SDS011;24074;49.254;6.702;2023-08-20T09:54:09;4.40;;;2.63;;
9950;SDS011;24074;49.254;6.702;2023-08-20T09:56:46;4.22;;;2.50;;
9950;SDS011;24074;49.254;6.702;2023-08-20T09:59:16;2.88;;;2.53;;
9950;SDS011;24074;49.254;6.702;2023-08-20T10:01:42;4.10;;;2.63;;
9950;SDS011;24074;49.254;6.702;2023-08-20T10:04:08;3.90;;;2.97;;
9950;SDS011;24074;49.254;6.702;2023-08-20T10:06:35;3.83;;;2.60;;
9950;SDS011;24074;49.254;6.702;2023-08-20T10:09:01;5.35;;;2.80;;
9950;SDS011;24074;49.254;6.702;2023-08-20T10:11:27;3.78;;;2.35;;
9950;SDS011;24074;49.254;6.702;2023-08-20T10:13:53;3.10;;;2.65;;
9950;SDS011;24074;49.254;6.702;2023-08-20T10:16:19;3.10;;;2.40;;
9950;SDS011;24074;49.254;6.702;2023-08-20T10:18:47;4.80;;;2.30;;
9950;SDS011;24074;49.254;6.702;2023-08-20T10:21:12;3.05;;;2.03;;
9950;SDS011;24074;49.254;6.702;2023-08-20T10:23:41;4.55;;;2.28;;
9950;SDS011;24074;49.254;6.702;2023-08-20T10:26:09;3.20;;;2.28;;
9950;SDS011;24074;49.254;6.702;2023-08-20T10:28:35;5.93;;;2.58;;
9950;SDS011;24074;49.254;6.702;2023-08-20T10:31:16;2.85;;;2.05;;
9950;SDS011;24074;49.254;6.702;2023-08-20T10:33:49;3.42;;;2.30;;
9950;SDS011;24074;49.254;6.702;2023-08-20T10:38:46;4.32;;;2.10;;
9950;SDS011;24074;49.254;6.702;2023-08-20T10:41:12;3.83;;;2.40;;
9950;SDS011;24074;49.254;6.702;2023-08-20T10:43:38;4.15;;;2.45;;
9950;SDS011;24074;49.254;6.702;2023-08-20T10:48:53;3.53;;;2.00;;
9950;SDS011;24074;49.254;6.702;2023-08-20T10:51:32;2.28;;;1.90;;
9950;SDS011;24074;49.254;6.702;2023-08-20T10:56:40;3.10;;;2.10;;
9950;SDS011;24074;49.254;6.702;2023-08-20T10:59:16;2.00;;;1.80;;
9950;SDS011;24074;49.254;6.702;2023-08-20T11:01:46;4.20;;;2.20;;
9950;SDS011;24074;49.254;6.702;2023-08-20T11:04:16;3.38;;;2.10;;
9950;SDS011;24074;49.254;6.702;2023-08-20T11:06:44;4.68;;;2.17;;
9950;SDS011;24074;49.254;6.702;2023-08-20T11:09:10;4.32;;;1.90;;
9950;SDS011;24074;49.254;6.702;2023-08-20T11:11:37;4.20;;;2.00;;
9950;SDS011;24074;49.254;6.702;2023-08-20T11:14:06;4.78;;;2.10;;
9950;SDS011;24074;49.254;6.702;2023-08-20T11:16:34;4.25;;;2.20;;
9950;SDS011;24074;49.254;6.702;2023-08-20T11:19:00;5.68;;;2.00;;
9950;SDS011;24074;49.254;6.702;2023-08-20T11:21:27;4.72;;;1.88;;
9950;SDS011;24074;49.254;6.702;2023-08-20T11:23:54;2.78;;;1.90;;
9950;SDS011;24074;49.254;6.702;2023-08-20T11:26:20;4.38;;;1.80;;
9950;SDS011;24074;49.254;6.702;2023-08-20T11:28:46;2.58;;;1.95;;
9950;SDS011;24074;49.254;6.702;2023-08-20T11:31:12;3.35;;;1.88;;
9950;SDS011;24074;49.254;6.702;2023-08-20T11:33:38;4.40;;;2.17;;
9950;SDS011;24074;49.254;6.702;2023-08-20T11:36:04;2.55;;;1.75;;
9950;SDS011;24074;49.254;6.702;2023-08-20T11:38:30;2.40;;;1.88;;
9950;SDS011;24074;49.254;6.702;2023-08-20T11:40:59;3.42;;;1.95;;
9950;SDS011;24074;49.254;6.702;2023-08-20T11:43:28;4.38;;;2.00;;
9950;SDS011;24074;49.254;6.702;2023-08-20T11:45:55;3.50;;;2.00;;
9950;SDS011;24074;49.254;6.702;2023-08-20T11:48:21;3.33;;;2.00;;
9950;SDS011;24074;49.254;6.702;2023-08-20T11:50:47;4.35;;;1.85;;
9950;SDS011;24074;49.254;6.702;2023-08-20T11:53:14;4.15;;;1.80;;
9950;SDS011;24074;49.254;6.702;2023-08-20T11:55:40;2.42;;;1.85;;
9950;SDS011;24074;49.254;6.702;2023-08-20T11:58:11;3.65;;;2.00;;
9950;SDS011;24074;49.254;6.702;2023-08-20T12:00:37;4.80;;;1.92;;
9950;SDS011;24074;49.254;6.702;2023-08-20T12:03:03;4.40;;;2.50;;
9950;SDS011;24074;49.254;6.702;2023-08-20T12:05:30;2.67;;;2.10;;
9950;SDS011;24074;49.254;6.702;2023-08-20T12:08:02;3.00;;;2.00;;
9950;SDS011;24074;49.254;6.702;2023-08-20T12:10:29;3.47;;;2.20;;
9950;SDS011;24074;49.254;6.702;2023-08-20T12:12:56;3.83;;;2.40;;
9950;SDS011;24074;49.254;6.702;2023-08-20T12:15:23;2.78;;;2.30;;
9950;SDS011;24074;49.254;6.702;2023-08-20T12:18:00;2.30;;;1.90;;
9950;SDS011;24074;49.254;6.702;2023-08-20T12:20:28;4.40;;;2.00;;
9950;SDS011;24074;49.254;6.702;2023-08-20T12:22:56;2.75;;;2.38;;
9950;SDS011;24074;49.254;6.702;2023-08-20T12:25:33;3.05;;;2.10;;
9950;SDS011;24074;49.254;6.702;2023-08-20T12:28:01;3.65;;;1.70;;
9950;SDS011;24074;49.254;6.702;2023-08-20T12:30:29;2.78;;;2.00;;
9950;SDS011;24074;49.254;6.702;2023-08-20T12:32:55;2.58;;;2.20;;
9950;SDS011;24074;49.254;6.702;2023-08-20T12:35:20;1.88;;;1.60;;
9950;SDS011;24074;49.254;6.702;2023-08-20T12:37:49;3.33;;;1.85;;
9950;SDS011;24074;49.254;6.702;2023-08-20T12:40:15;6.43;;;2.20;;
9950;SDS011;24074;49.254;6.702;2023-08-20T12:42:41;3.85;;;1.83;;
9950;SDS011;24074;49.254;6.702;2023-08-20T12:45:06;3.88;;;2.08;;
9950;SDS011;24074;49.254;6.702;2023-08-20T12:47:33;2.40;;;1.90;;
9950;SDS011;24074;49.254;6.702;2023-08-20T12:49:59;3.47;;;1.60;;
9950;SDS011;24074;49.254;6.702;2023-08-20T12:52:25;2.17;;;1.98;;
9950;SDS011;24074;49.254;6.702;2023-08-20T12:54:51;3.75;;;1.80;;
9950;SDS011;24074;49.254;6.702;2023-08-20T12:57:16;2.85;;;1.80;;
9950;SDS011;24074;49.254;6.702;2023-08-20T12:59:42;2.03;;;1.70;;
9950;SDS011;24074;49.254;6.702;2023-08-20T13:02:07;2.75;;;1.73;;
9950;SDS011;24074;49.254;6.702;2023-08-20T13:04:33;4.95;;;2.05;;
9950;SDS011;24074;49.254;6.702;2023-08-20T13:06:59;2.95;;;2.10;;
9950;SDS011;24074;49.254;6.702;2023-08-20T13:09:26;3.00;;;1.98;;
9950;SDS011;24074;49.254;6.702;2023-08-20T13:11:53;2.25;;;1.80;;
9950;SDS011;24074;49.254;6.702;2023-08-20T13:14:20;2.50;;;1.80;;
9950;SDS011;24074;49.254;6.702;2023-08-20T13:16:46;3.47;;;2.00;;
9950;SDS011;24074;49.254;6.702;2023-08-20T13:19:12;2.20;;;1.70;;
9950;SDS011;24074;49.254;6.702;2023-08-20T13:21:37;2.10;;;1.88;;
9950;SDS011;24074;49.254;6.702;2023-08-20T13:24:03;2.10;;;1.80;;
9950;SDS011;24074;49.254;6.702;2023-08-20T13:26:29;3.15;;;1.90;;
9950;SDS011;24074;49.254;6.702;2023-08-20T13:28:55;3.22;;;2.05;;
9950;SDS011;24074;49.254;6.702;2023-08-20T13:31:20;2.33;;;1.90;;
9950;SDS011;24074;49.254;6.702;2023-08-20T13:33:46;2.70;;;1.77;;
9950;SDS011;24074;49.254;6.702;2023-08-20T13:36:11;2.60;;;2.08;;
9950;SDS011;24074;49.254;6.702;2023-08-20T13:38:37;2.88;;;2.00;;
9950;SDS011;24074;49.254;6.702;2023-08-20T13:41:02;2.75;;;1.80;;
9950;SDS011;24074;49.254;6.702;2023-08-20T13:43:28;2.83;;;1.90;;
9950;SDS011;24074;49.254;6.702;2023-08-20T13:45:53;3.90;;;1.95;;
9950;SDS011;24074;49.254;6.702;2023-08-20T13:48:19;4.10;;;1.83;;
9950;SDS011;24074;49.254;6.702;2023-08-20T13:50:45;2.03;;;1.73;;
9950;SDS011;24074;49.254;6.702;2023-08-20T13:53:10;2.95;;;2.15;;
9950;SDS011;24074;49.254;6.702;2023-08-20T13:55:36;2.22;;;1.70;;
9950;SDS011;24074;49.254;6.702;2023-08-20T13:58:01;3.53;;;2.10;;
9950;SDS011;24074;49.254;6.702;2023-08-20T14:00:27;2.13;;;1.92;;
9950;SDS011;24074;49.254;6.702;2023-08-20T14:02:52;2.63;;;2.08;;
9950;SDS011;24074;49.254;6.702;2023-08-20T14:05:18;4.43;;;2.30;;
9950;SDS011;24074;49.254;6.702;2023-08-20T14:07:44;2.30;;;2.10;;
9950;SDS011;24074;49.254;6.702;2023-08-20T14:10:10;3.72;;;2.30;;
9950;SDS011;24074;49.254;6.702;2023-08-20T14:12:36;3.65;;;2.25;;
9950;SDS011;24074;49.254;6.702;2023-08-20T14:15:01;2.67;;;1.90;;
9950;SDS011;24074;49.254;6.702;2023-08-20T14:17:27;2.70;;;2.15;;
9950;SDS011;24074;49.254;6.702;2023-08-20T14:19:53;3.35;;;2.45;;
9950;SDS011;24074;49.254;6.702;2023-08-20T14:22:18;2.45;;;2.00;;
9950;SDS011;24074;49.254;6.702;2023-08-20T14:24:44;3.60;;;2.20;;
9950;SDS011;24074;49.254;6.702;2023-08-20T14:27:10;2.53;;;2.08;;
9950;SDS011;24074;49.254;6.702;2023-08-20T14:29:35;2.22;;;2.00;;
9950;SDS011;24074;49.254;6.702;2023-08-20T14:32:01;2.35;;;2.05;;
9950;SDS011;24074;49.254;6.702;2023-08-20T14:34:27;5.18;;;2.15;;
9950;SDS011;24074;49.254;6.702;2023-08-20T14:36:53;2.72;;;2.25;;
9950;SDS011;24074;49.254;6.702;2023-08-20T14:39:18;4.10;;;2.28;;
9950;SDS011;24074;49.254;6.702;2023-08-20T14:41:45;4.75;;;2.20;;
9950;SDS011;24074;49.254;6.702;2023-08-20T14:44:10;2.88;;;1.92;;
9950;SDS011;24074;49.254;6.702;2023-08-20T14:46:36;2.97;;;1.83;;
9950;SDS011;24074;49.254;6.702;2023-08-20T14:49:01;3.13;;;1.98;;
9950;SDS011;24074;49.254;6.702;2023-08-20T14:51:27;2.67;;;2.00;;
9950;SDS011;24074;49.254;6.702;2023-08-20T14:53:53;3.45;;;1.98;;
9950;SDS011;24074;49.254;6.702;2023-08-20T14:56:19;2.65;;;2.00;;
9950;SDS011;24074;49.254;6.702;2023-08-20T14:58:44;4.70;;;2.15;;
9950;SDS011;24074;49.254;6.702;2023-08-20T15:01:10;2.78;;;2.08;;
9950;SDS011;24074;49.254;6.702;2023-08-20T15:03:35;4.03;;;2.28;;
9950;SDS011;24074;49.254;6.702;2023-08-20T15:06:01;4.28;;;2.00;;
9950;SDS011;24074;49.254;6.702;2023-08-20T15:08:26;3.75;;;2.00;;
9950;SDS011;24074;49.254;6.702;2023-08-20T15:10:56;3.58;;;2.10;;